createdAt,value
2023-03-20T00:02:08.172Z,7.10
2023-03-20T00:04:35.097Z,7.57
2023-03-20T00:07:02.020Z,6.65
2023-03-20T00:09:28.840Z,7.55
2023-03-20T00:11:56.154Z,6.27
2023-03-20T00:14:24.705Z,6.05
2023-03-20T00:16:52.683Z,6.63
2023-03-20T00:19:24.759Z,6.32
2023-03-20T00:21:53.320Z,6.13
2023-03-20T00:24:20.945Z,5.60
2023-03-20T00:26:50.404Z,5.90
2023-03-20T00:29:26.713Z,5.80
2023-03-20T00:31:54.886Z,5.28
2023-03-20T00:34:25.709Z,5.80
2023-03-20T00:36:53.395Z,5.50
2023-03-20T00:39:21.580Z,5.90
2023-03-20T00:41:52.973Z,5.40
2023-03-20T00:44:39.004Z,4.80
2023-03-20T00:47:17.905Z,5.05
2023-03-20T00:49:46.883Z,4.80
2023-03-20T00:52:15.131Z,4.95
2023-03-20T00:54:42.008Z,5.30
2023-03-20T00:57:18.025Z,5.40
2023-03-20T01:00:06.943Z,5.40
2023-03-20T01:02:34.202Z,5.30
2023-03-20T01:05:02.227Z,6.40
2023-03-20T01:07:29.635Z,5.80
2023-03-20T01:09:56.757Z,4.97
2023-03-20T01:12:23.924Z,5.78
2023-03-20T01:14:57.124Z,5.73
2023-03-20T01:17:25.703Z,6.07
2023-03-20T01:19:53.286Z,6.40
2023-03-20T01:22:20.561Z,5.80
2023-03-20T01:24:47.959Z,7.00
2023-03-20T01:27:19.979Z,7.03
2023-03-20T01:29:47.198Z,7.97
2023-03-20T01:32:17.476Z,8.60
2023-03-20T01:34:47.865Z,8.68
2023-03-20T01:37:22.576Z,9.13
2023-03-20T01:39:50.309Z,8.93
2023-03-20T01:42:18.334Z,9.20
2023-03-20T01:44:45.818Z,9.80
2023-03-20T01:47:20.033Z,10.43
2023-03-20T01:50:22.613Z,10.65
2023-03-20T01:53:05.723Z,9.73
2023-03-20T01:55:36.216Z,9.95
2023-03-20T01:58:08.344Z,10.38
2023-03-20T02:00:36.843Z,9.82
2023-03-20T02:03:08.802Z,11.20
2023-03-20T02:06:06.595Z,12.00
2023-03-20T02:08:56.341Z,12.20
2023-03-20T02:11:26.305Z,11.68
2023-03-20T02:13:55.829Z,11.20
2023-03-20T02:16:23.936Z,11.25
2023-03-20T02:18:56.395Z,10.30
2023-03-20T02:22:02.026Z,11.65
2023-03-20T02:24:37.255Z,11.50
2023-03-20T02:27:30.790Z,10.80
2023-03-20T02:30:24.375Z,11.88
2023-03-20T02:33:17.583Z,12.03
2023-03-20T02:36:06.358Z,11.05
2023-03-20T02:38:33.696Z,10.68
2023-03-20T02:41:28.772Z,11.88
2023-03-20T02:44:14.491Z,12.07
2023-03-20T02:47:02.402Z,12.97
2023-03-20T02:49:48.317Z,12.65
2023-03-20T02:52:39.134Z,12.52
2023-03-20T02:55:31.826Z,12.38
2023-03-20T02:58:12.539Z,11.98
2023-03-20T03:00:50.753Z,12.40
2023-03-20T03:03:41.506Z,12.68
2023-03-20T03:06:18.836Z,12.40
2023-03-20T03:08:52.567Z,11.73
2023-03-20T03:11:19.404Z,12.98
2023-03-20T03:13:50.851Z,11.87
2023-03-20T03:16:37.356Z,11.55
2023-03-20T03:19:18.248Z,12.05
2023-03-20T03:21:47.891Z,12.05
2023-03-20T03:24:40.946Z,11.73
2023-03-20T03:27:49.365Z,9.87
2023-03-20T03:30:24.149Z,12.88
2023-03-20T03:33:11.335Z,12.50
2023-03-20T03:35:40.177Z,11.52
2023-03-20T03:38:31.692Z,11.70
2023-03-20T03:41:20.512Z,10.53
2023-03-20T03:43:58.824Z,11.13
2023-03-20T03:46:53.385Z,11.02
2023-03-20T03:49:24.763Z,11.52
2023-03-20T03:52:00.370Z,11.43
2023-03-20T03:54:47.643Z,11.20
2023-03-20T03:57:48.652Z,9.73
2023-03-20T04:00:20.735Z,11.15
2023-03-20T04:02:51.515Z,12.38
2023-03-20T04:05:21.039Z,11.52
2023-03-20T04:07:53.108Z,12.10
2023-03-20T04:10:20.023Z,12.70
2023-03-20T04:12:46.911Z,12.40
2023-03-20T04:15:16.074Z,12.75
2023-03-20T04:17:44.322Z,12.13
2023-03-20T04:20:14.029Z,11.50
2023-03-20T04:22:41.059Z,12.25
2023-03-20T04:25:26.199Z,12.77
2023-03-20T04:27:55.576Z,12.02
2023-03-20T04:30:41.339Z,13.73
2023-03-20T04:33:08.396Z,12.23
2023-03-20T04:35:44.222Z,12.75
2023-03-20T04:38:14.010Z,13.13
2023-03-20T04:40:42.027Z,12.20
2023-03-20T04:43:08.822Z,12.38
2023-03-20T04:45:36.090Z,11.73
2023-03-20T04:48:03.307Z,12.05
2023-03-20T04:50:31.125Z,11.68
2023-03-20T04:52:58.419Z,12.50
2023-03-20T04:55:26.511Z,12.70
2023-03-20T04:57:54.456Z,12.07
2023-03-20T05:00:21.891Z,11.43
2023-03-20T05:02:48.690Z,12.30
2023-03-20T05:05:16.546Z,13.35
2023-03-20T05:07:43.852Z,12.25
2023-03-20T05:10:15.963Z,10.83
2023-03-20T05:13:03.105Z,12.90
2023-03-20T05:15:48.512Z,12.15
2023-03-20T05:18:28.954Z,11.15
2023-03-20T05:21:12.292Z,11.50
2023-03-20T05:23:53.007Z,11.33
2023-03-20T05:26:52.205Z,11.52
2023-03-20T05:29:42.628Z,11.10
2023-03-20T05:32:19.310Z,11.18
2023-03-20T05:35:01.372Z,11.38
2023-03-20T05:37:42.530Z,12.20
2023-03-20T05:40:24.227Z,11.38
2023-03-20T05:43:23.224Z,10.98
2023-03-20T05:46:00.556Z,10.52
2023-03-20T05:48:56.336Z,11.95
2023-03-20T05:51:42.352Z,10.57
2023-03-20T05:54:23.085Z,10.68
2023-03-20T05:57:17.903Z,11.32
2023-03-20T05:59:50.486Z,10.55
2023-03-20T06:02:36.063Z,10.85
2023-03-20T06:05:12.250Z,10.13
2023-03-20T06:07:45.739Z,12.40
2023-03-20T06:10:15.149Z,11.65
2023-03-20T06:12:42.704Z,11.55
2023-03-20T06:15:09.976Z,11.77
2023-03-20T06:17:41.141Z,11.17
2023-03-20T06:20:09.750Z,11.95
2023-03-20T06:22:37.814Z,11.35
2023-03-20T06:25:06.669Z,10.98
2023-03-20T06:27:40.260Z,11.98
2023-03-20T06:30:07.760Z,10.30
2023-03-20T06:32:36.475Z,10.20
2023-03-20T06:35:06.290Z,11.73
2023-03-20T06:37:33.790Z,10.48
2023-03-20T06:40:07.267Z,10.13
2023-03-20T06:42:35.332Z,10.67
2023-03-20T06:45:03.073Z,9.82
2023-03-20T06:47:42.948Z,10.80
2023-03-20T06:50:10.561Z,10.98
2023-03-20T06:52:37.996Z,11.60
2023-03-20T06:55:25.989Z,10.00
2023-03-20T06:57:53.032Z,12.02
2023-03-20T07:00:21.623Z,15.20
2023-03-20T07:02:49.053Z,17.48
2023-03-20T07:05:17.594Z,15.02
2023-03-20T07:07:45.444Z,12.50
2023-03-20T07:10:12.551Z,12.32
2023-03-20T07:12:41.836Z,11.77
2023-03-20T07:15:08.881Z,10.63
2023-03-20T07:17:39.141Z,11.05
2023-03-20T07:20:08.712Z,9.87
2023-03-20T07:22:36.770Z,10.40
2023-03-20T07:25:41.496Z,10.52
2023-03-20T07:28:07.518Z,8.10
2023-03-20T07:30:36.962Z,9.80
2023-03-20T07:33:04.761Z,9.67
2023-03-20T07:35:34.004Z,9.30
2023-03-20T07:38:01.444Z,8.75
2023-03-20T07:40:28.740Z,7.85
2023-03-20T07:42:59.677Z,9.07
2023-03-20T07:46:04.143Z,6.80
2023-03-20T07:48:31.305Z,7.97
2023-03-20T07:50:59.115Z,8.88
2023-03-20T07:53:26.460Z,7.82
2023-03-20T07:55:53.576Z,8.57
2023-03-20T07:58:20.977Z,8.77
2023-03-20T08:00:47.835Z,9.07
2023-03-20T08:03:15.019Z,7.97
2023-03-20T08:05:43.204Z,7.40
2023-03-20T08:08:11.862Z,8.23
2023-03-20T08:10:39.046Z,8.30
2023-03-20T08:13:06.001Z,7.80
2023-03-20T08:15:32.754Z,8.10
2023-03-20T08:17:59.868Z,7.90
2023-03-20T08:20:27.282Z,7.82
2023-03-20T08:22:54.026Z,7.20
2023-03-20T08:25:20.835Z,7.85
2023-03-20T08:27:49.032Z,8.13
2023-03-20T08:30:16.717Z,8.10
2023-03-20T08:32:46.427Z,8.82
2023-03-20T08:35:29.612Z,7.40
2023-03-20T08:37:58.922Z,7.20
2023-03-20T08:40:25.772Z,7.75
2023-03-20T08:42:52.785Z,7.03
2023-03-20T08:45:20.055Z,7.43
2023-03-20T08:47:50.277Z,6.90
2023-03-20T08:50:17.368Z,8.23
2023-03-20T08:52:44.752Z,7.22
2023-03-20T08:55:12.700Z,6.72
2023-03-20T08:57:40.129Z,7.72
2023-03-20T09:00:09.431Z,7.77
2023-03-20T09:02:36.719Z,8.55
2023-03-20T09:05:03.925Z,6.97
2023-03-20T09:07:30.729Z,7.22
2023-03-20T09:09:57.765Z,6.72
2023-03-20T09:12:24.658Z,7.03
2023-03-20T09:14:51.398Z,6.30
2023-03-20T09:17:18.262Z,6.15
2023-03-20T09:19:46.063Z,6.57
2023-03-20T09:22:14.403Z,6.90
2023-03-20T09:24:41.936Z,6.13
2023-03-20T09:27:08.828Z,6.20
2023-03-20T09:29:36.095Z,6.70
2023-03-20T09:32:03.096Z,7.03
2023-03-20T09:34:30.020Z,6.32
2023-03-20T09:36:57.340Z,6.07
2023-03-20T09:39:24.504Z,5.90
2023-03-20T09:41:57.590Z,6.15
2023-03-20T09:44:47.102Z,6.07
2023-03-20T09:47:20.535Z,6.70
2023-03-20T09:50:07.872Z,5.63
2023-03-20T09:52:48.362Z,4.95
2023-03-20T09:55:18.902Z,6.00
2023-03-20T09:57:58.421Z,5.57
2023-03-20T10:00:28.966Z,5.88
2023-03-20T10:03:08.229Z,6.10
2023-03-20T10:05:56.839Z,6.05
2023-03-20T10:08:29.932Z,5.45
2023-03-20T10:11:17.216Z,6.05
2023-03-20T10:14:18.634Z,6.35
2023-03-20T10:17:00.488Z,6.13
2023-03-20T10:19:33.524Z,6.57
2023-03-20T10:22:25.147Z,6.35
2023-03-20T10:25:04.401Z,5.60
2023-03-20T10:27:46.244Z,6.28
2023-03-20T10:30:34.405Z,5.87
2023-03-20T10:33:41.201Z,7.13
2023-03-20T10:36:39.193Z,6.53
2023-03-20T10:39:39.761Z,7.75
2023-03-20T10:42:42.591Z,8.13
2023-03-20T10:45:18.214Z,7.87
2023-03-20T10:47:49.830Z,7.97
2023-03-20T10:50:19.011Z,9.05
2023-03-20T10:52:50.074Z,7.30
2023-03-20T10:55:22.649Z,9.18
2023-03-20T10:58:03.403Z,8.53
2023-03-20T11:00:30.455Z,8.70
2023-03-20T11:02:57.381Z,9.23
2023-03-20T11:05:33.746Z,8.40
2023-03-20T11:08:06.099Z,10.40
2023-03-20T11:10:36.356Z,9.73
2023-03-20T11:13:31.025Z,9.85
2023-03-20T11:16:09.307Z,10.48
2023-03-20T11:18:36.764Z,9.88
2023-03-20T11:21:03.963Z,11.30
2023-03-20T11:23:34.577Z,9.93
2023-03-20T11:26:06.845Z,10.35
2023-03-20T11:28:38.029Z,10.05
2023-03-20T11:31:13.734Z,11.25
2023-03-20T11:33:44.558Z,11.10
2023-03-20T11:36:37.552Z,10.50
2023-03-20T11:39:14.393Z,11.95
2023-03-20T11:41:51.898Z,12.48
2023-03-20T11:44:27.291Z,10.05
2023-03-20T11:47:20.224Z,11.68
2023-03-20T11:50:02.856Z,10.77
2023-03-20T11:52:33.687Z,10.68
2023-03-20T11:55:04.265Z,12.18
2023-03-20T11:57:42.045Z,10.90
2023-03-20T12:00:11.873Z,11.38
2023-03-20T12:02:41.710Z,10.53
2023-03-20T12:05:32.229Z,10.40
2023-03-20T12:08:06.574Z,11.38
2023-03-20T12:10:39.591Z,11.02
2023-03-20T12:13:12.954Z,10.52
2023-03-20T12:15:47.103Z,8.50
2023-03-20T12:18:29.221Z,10.20
2023-03-20T12:21:14.867Z,7.72
2023-03-20T12:24:08.186Z,10.77
2023-03-20T12:26:36.097Z,10.00
2023-03-20T12:29:25.831Z,10.13
2023-03-20T12:32:05.280Z,9.57
2023-03-20T12:34:40.383Z,11.05
2023-03-20T12:37:12.102Z,10.38
2023-03-20T12:39:44.538Z,10.77
2023-03-20T12:42:34.356Z,9.23
2023-03-20T12:45:22.174Z,10.65
2023-03-20T12:47:51.984Z,9.80
2023-03-20T12:50:24.957Z,9.70
2023-03-20T12:53:04.594Z,8.88
2023-03-20T12:55:47.539Z,9.50
2023-03-20T12:58:33.493Z,9.10
2023-03-20T13:01:14.287Z,9.13
2023-03-20T13:04:25.768Z,9.70
2023-03-20T13:06:58.367Z,10.88
2023-03-20T13:09:44.932Z,9.73
2023-03-20T13:12:37.224Z,9.60
2023-03-20T13:15:42.103Z,8.38
2023-03-20T13:18:22.582Z,9.50
2023-03-20T13:21:00.818Z,10.35
2023-03-20T13:23:41.206Z,10.93
2023-03-20T13:26:21.071Z,10.90
2023-03-20T13:29:06.600Z,10.82
2023-03-20T13:32:02.998Z,11.13
2023-03-20T13:34:47.680Z,11.63
2023-03-20T13:37:24.501Z,9.77
2023-03-20T13:40:20.368Z,11.02
2023-03-20T13:42:52.620Z,11.45
2023-03-20T13:45:38.911Z,12.40
2023-03-20T13:48:24.584Z,11.00
2023-03-20T13:50:51.395Z,11.00
2023-03-20T13:53:41.498Z,12.00
2023-03-20T13:56:22.519Z,12.10
2023-03-20T13:58:58.995Z,11.98
2023-03-20T14:01:33.041Z,11.50
2023-03-20T14:04:01.044Z,8.73
2023-03-20T14:06:30.818Z,12.20
2023-03-20T14:08:59.612Z,11.38
2023-03-20T14:11:35.473Z,11.52
2023-03-20T14:14:28.108Z,11.57
2023-03-20T14:17:22.435Z,10.83
2023-03-20T14:19:50.991Z,10.38
2023-03-20T14:22:26.528Z,10.75
2023-03-20T14:25:04.804Z,10.63
2023-03-20T14:27:44.281Z,11.38
2023-03-20T14:30:32.659Z,9.10
2023-03-20T14:33:23.422Z,10.30
2023-03-20T14:36:10.171Z,11.55
2023-03-20T14:38:50.714Z,10.40
2023-03-20T14:41:33.336Z,10.32
2023-03-20T14:44:17.478Z,10.87
2023-03-20T14:46:53.828Z,11.13
2023-03-20T14:49:26.564Z,12.98
2023-03-20T14:52:12.666Z,11.38
2023-03-20T14:54:41.554Z,12.05
2023-03-20T14:57:17.186Z,12.07
2023-03-20T14:59:44.192Z,11.68
2023-03-20T15:02:30.310Z,11.55
2023-03-20T15:04:58.240Z,11.70
2023-03-20T15:07:28.764Z,13.30
2023-03-20T15:09:59.697Z,12.63
2023-03-20T15:12:30.739Z,11.05
2023-03-20T15:15:00.252Z,13.52
2023-03-20T15:17:39.788Z,13.63
2023-03-20T15:20:24.846Z,12.15
2023-03-20T15:22:51.550Z,13.97
2023-03-20T15:25:20.904Z,12.15
2023-03-20T15:27:49.664Z,13.25
2023-03-20T15:30:19.344Z,12.60
2023-03-20T15:32:48.306Z,13.07
2023-03-20T15:35:18.820Z,13.70
2023-03-20T15:37:48.194Z,13.25
2023-03-20T15:40:49.275Z,14.00
2023-03-20T15:43:20.051Z,14.18
2023-03-20T15:45:47.073Z,14.43
2023-03-20T15:48:19.961Z,13.37
2023-03-20T15:50:51.654Z,14.73
2023-03-20T15:53:23.919Z,14.98
2023-03-20T15:56:17.642Z,14.10
2023-03-20T15:58:45.991Z,14.23
2023-03-20T16:01:21.804Z,12.57
2023-03-20T16:03:49.223Z,13.18
2023-03-20T16:06:21.891Z,14.02
2023-03-20T16:09:05.649Z,19.13
2023-03-20T16:11:41.809Z,17.00
2023-03-20T16:14:18.733Z,13.63
2023-03-20T16:16:49.075Z,12.75
2023-03-20T16:19:17.158Z,13.75
2023-03-20T16:21:50.322Z,12.25
2023-03-20T16:24:25.833Z,12.45
2023-03-20T16:26:54.377Z,12.63
2023-03-20T16:29:23.827Z,12.65
2023-03-20T16:31:55.274Z,13.40
2023-03-20T16:34:26.977Z,12.70
2023-03-20T16:37:00.176Z,12.82
2023-03-20T16:39:30.167Z,11.50
2023-03-20T16:42:08.150Z,12.75
2023-03-20T16:44:39.853Z,14.32
2023-03-20T16:47:22.258Z,12.60
2023-03-20T16:49:52.183Z,12.90
2023-03-20T16:52:28.814Z,13.13
2023-03-20T16:55:00.110Z,12.40
2023-03-20T16:57:29.306Z,12.93
2023-03-20T17:00:04.799Z,13.45
2023-03-20T17:02:37.380Z,12.52
2023-03-20T17:05:07.881Z,14.17
2023-03-20T17:07:36.749Z,13.27
2023-03-20T17:10:21.616Z,14.10
2023-03-20T17:12:50.525Z,11.85
2023-03-20T17:15:21.233Z,13.93
2023-03-20T17:17:48.386Z,13.53
2023-03-20T17:20:21.167Z,13.10
2023-03-20T17:22:48.167Z,13.35
2023-03-20T17:25:15.446Z,14.25
2023-03-20T17:27:43.273Z,14.60
2023-03-20T17:30:20.061Z,14.73
2023-03-20T17:32:47.728Z,14.73
2023-03-20T17:35:14.922Z,15.00
2023-03-20T17:37:42.825Z,15.38
2023-03-20T17:40:22.083Z,16.10
2023-03-20T17:42:49.062Z,15.87
2023-03-20T17:45:20.480Z,16.40
2023-03-20T17:47:48.482Z,17.02
2023-03-20T17:50:24.208Z,15.57
2023-03-20T17:52:51.406Z,15.73
2023-03-20T17:55:18.231Z,13.87
2023-03-20T17:57:45.929Z,15.98
2023-03-20T18:00:23.834Z,18.08
2023-03-20T18:02:51.388Z,16.15
2023-03-20T18:05:18.406Z,15.55
2023-03-20T18:07:45.897Z,15.63
2023-03-20T18:10:35.727Z,16.20
2023-03-20T18:13:03.024Z,15.93
2023-03-20T18:15:30.090Z,14.75
2023-03-20T18:18:00.221Z,16.15
2023-03-20T18:20:32.684Z,14.27
2023-03-20T18:23:01.392Z,13.50
2023-03-20T18:25:28.697Z,14.85
2023-03-20T18:27:58.628Z,15.93
2023-03-20T18:30:29.818Z,15.18
2023-03-20T18:32:57.728Z,14.73
2023-03-20T18:35:25.186Z,16.70
2023-03-20T18:37:52.305Z,15.77
2023-03-20T18:40:26.249Z,14.55
2023-03-20T18:42:55.049Z,15.32
2023-03-20T18:45:27.944Z,14.77
2023-03-20T18:47:57.345Z,15.93
2023-03-20T18:50:34.501Z,15.02
2023-03-20T18:53:05.237Z,13.00
2023-03-20T18:55:35.083Z,15.02
2023-03-20T18:58:04.073Z,14.30
2023-03-20T19:00:40.600Z,14.07
2023-03-20T19:03:09.002Z,13.45
2023-03-20T19:05:36.397Z,12.55
2023-03-20T19:08:04.340Z,13.15
2023-03-20T19:10:43.875Z,12.50
2023-03-20T19:13:14.580Z,11.55
2023-03-20T19:15:42.225Z,10.77
2023-03-20T19:18:15.872Z,12.02
2023-03-20T19:20:45.261Z,10.60
2023-03-20T19:23:14.318Z,10.77
2023-03-20T19:25:43.737Z,11.80
2023-03-20T19:28:36.980Z,11.77
2023-03-20T19:31:05.551Z,11.63
2023-03-20T19:33:33.344Z,11.48
2023-03-20T19:36:11.779Z,11.00
2023-03-20T19:38:38.765Z,10.88
2023-03-20T19:41:05.894Z,11.95
2023-03-20T19:43:32.899Z,11.40
2023-03-20T19:45:59.944Z,10.52
2023-03-20T19:48:49.233Z,11.57
2023-03-20T19:51:19.701Z,11.65
2023-03-20T19:53:47.718Z,11.93
2023-03-20T19:56:16.543Z,10.95
2023-03-20T19:58:44.490Z,10.50
2023-03-20T20:01:20.417Z,11.23
2023-03-20T20:03:48.142Z,11.57
2023-03-20T20:06:15.957Z,11.52
2023-03-20T20:08:48.448Z,11.63
2023-03-20T20:11:20.607Z,11.23
2023-03-20T20:16:39.935Z,13.35
2023-03-20T20:19:07.599Z,13.32
2023-03-20T20:24:28.096Z,11.90
2023-03-20T20:27:15.342Z,12.20
2023-03-20T20:29:48.286Z,13.98
2023-03-20T20:32:16.106Z,12.60
2023-03-20T20:40:20.422Z,11.80
2023-03-20T20:42:49.393Z,12.10
2023-03-20T20:45:16.333Z,13.20
2023-03-20T20:47:44.941Z,12.10
2023-03-20T20:50:13.457Z,12.55
2023-03-20T20:52:41.767Z,13.57
2023-03-20T20:55:22.537Z,13.00
2023-03-20T20:57:51.968Z,13.63
2023-03-20T21:00:21.244Z,13.00
2023-03-20T21:02:48.259Z,12.32
2023-03-20T21:05:17.260Z,14.07
2023-03-20T21:07:45.863Z,12.60
2023-03-20T21:10:17.180Z,13.55
2023-03-20T21:12:58.172Z,11.27
2023-03-20T21:15:26.772Z,12.15
2023-03-20T21:18:00.955Z,11.70
2023-03-20T21:20:29.105Z,10.45
2023-03-20T21:22:56.189Z,11.73
2023-03-20T21:25:36.266Z,12.45
2023-03-20T21:28:06.672Z,12.25
2023-03-20T21:30:33.889Z,12.07
2023-03-20T21:33:01.007Z,13.25
2023-03-20T21:35:28.692Z,12.70
2023-03-20T21:40:43.467Z,13.02
2023-03-20T21:43:10.570Z,13.03
2023-03-20T21:48:58.821Z,12.80
2023-03-20T22:00:06.875Z,11.63
2023-03-20T22:02:26.295Z,13.32
2023-03-20T22:08:24.180Z,12.25
2023-03-20T22:14:25.310Z,12.13
2023-03-20T22:22:22.962Z,11.50
2023-03-20T22:25:12.180Z,12.57
2023-03-20T22:33:41.163Z,13.40
2023-03-20T22:39:05.142Z,13.33
2023-03-20T22:46:48.426Z,13.82
2023-03-20T22:49:15.267Z,13.80
2023-03-20T22:51:57.400Z,14.00
2023-03-20T22:54:28.886Z,14.10
2023-03-20T22:56:55.696Z,15.18
2023-03-20T22:59:22.522Z,13.75
2023-03-20T23:01:49.302Z,14.10
2023-03-20T23:04:16.096Z,13.33
2023-03-20T23:06:43.003Z,13.95
2023-03-20T23:09:15.400Z,14.55
2023-03-20T23:11:43.060Z,13.75
2023-03-20T23:14:28.358Z,15.32
2023-03-20T23:16:55.811Z,14.20
2023-03-20T23:19:22.765Z,13.95
2023-03-20T23:21:49.715Z,12.68
2023-03-20T23:24:16.942Z,14.02
2023-03-20T23:26:43.849Z,14.27
2023-03-20T23:29:11.595Z,12.27
2023-03-20T23:31:38.463Z,12.35
2023-03-20T23:34:05.573Z,13.00
2023-03-20T23:36:36.857Z,12.93
2023-03-20T23:39:06.437Z,12.63
2023-03-20T23:42:01.871Z,11.80
2023-03-20T23:44:20.541Z,12.82
2023-03-20T23:46:48.331Z,13.38
2023-03-20T23:49:16.591Z,13.40
2023-03-20T23:51:43.684Z,14.52
2023-03-20T23:54:10.964Z,15.20
2023-03-20T23:56:37.894Z,13.07
2023-03-20T23:59:15.026Z,13.40
